AirNav   TITAN Aviation Fuels
 
 1348 users online  

T80 Bishop's Landing Airport
Celina, Texas, USA

GOING TO CELINA?


FAA INFORMATION EFFECTIVE 14 JULY 2022

Location

FAA Identifier: T80
Lat/Long: 33-22-35.4750N 096-43-44.1700W
33-22.591250N 096-43.736167W
33.3765208,-96.7289361
(estimated)
Elevation: 750 ft. / 229 m (estimated)
Variation: 06E (1995)
From city: 5 miles NE of CELINA, TX
Time zone: UTC -5 (UTC -6 during Standard Time)
Zip code: 75009

Airport Operations

Airport use: Open to the public
Activation date: 08/2000
Control tower: no
ARTCC: FORT WORTH CENTER
FSS: FORT WORTH FLIGHT SERVICE STATION
NOTAMs facility: FTW (NOTAM-D service available)
Attendance: UNATNDD
Wind indicator: yes
Segmented circle: no

Airport Communications

CTAF: 122.9
WX ASOS at TKI (14 nm SE): PHONE 972-548-8525

Nearby radio navigation aids

VOR radial/distance  VOR name  Freq  Var
BYPr243/26.6BONHAM VORTAC114.6006E
CVEr011/30.5COWBOY VOR/DME116.2006E
TTTr021/34.2MAVERICK VOR/DME113.1006E
FUZr032/37.0RANGER VORTAC115.7006E

 
NDB name  Hdg/Dist  Freq  Var  ID
DENISON180/27.234106EDNI -.. -. ..
MESQUITE341/35.524803EPQF .--. --.- ..-.

Airport Services

Runway Information

Runway 17/35

Dimensions: 1580 x 80 ft. / 482 x 24 m
Surface: turf, in good condition
RY SOFT AFT RAIN. CALL AMGR FOR FLD CONDS.
RUNWAY 17  RUNWAY 35
Latitude: 33-22.721500N33-22.461000N
Longitude: 096-43.735667W096-43.736667W
Elevation: 749.0 ft.733.0 ft.
Traffic pattern: leftright
Runway heading: 174 magnetic, 180 true354 magnetic, 360 true
Obstructions: 34 ft. pole, 10 ft. from runway, 67 ft. left and right of centerline70 ft. trees, 60 ft. left of centerline

Airport Ownership and Management from official FAA records

Ownership: Privately-owned
Owner: BOBBY BISHOP
8955 CR 135
CELINA, TX 75009
Phone (214) 280-4408
Manager: BOBBY BISHOP
8955 CR 135
CELINA, TX 75009
Phone (214) 280-4408

Airport Operational Statistics

Aircraft based on the field: 3
Single engine airplanes: 3
    
Aircraft operations: avg 50/month *
67% local general aviation
33% transient general aviation
* for 12-month period ending 15 February 2018

Additional Remarks

FOR CD CTC REGIONAL APCH AT 972-615-2799.

Instrument Procedures

There are no published instrument procedures at T80.

Some nearby airports with instrument procedures:

KTKI - McKinney National Airport (14 nm SE)
KSWI - Sherman Municipal Airport (16 nm NE)
KGYI - North Texas Regional Airport/Perrin Field (20 nm N)
KADS - Addison Airport (25 nm S)
KDTO - Denton Enterprise Airport (26 nm SW)
 
Loc | Ops | Rwys | IFR | FBO | Links
Com | Nav | Svcs | Stats | Notes

City of Fort Worth
 
Area around T80 (Bishop's Landing Airport)
 
Road maps at: MapQuest Bing Google
 
Aerial photo
No photo
 
Sectional chart

 
Airport distance calculator
Flying to Bishop's Landing Airport? Find the distance to fly.

From to T80

Sunrise and sunset
Times for 10-Aug-2022
 Local
(UTC-5)
 Zulu
(UTC)
Morning civil twilight06:2011:20
Sunrise06:4711:47
Sunset20:1801:18
Evening civil twilight20:4401:44

Current date and time
Zulu (UTC)  10-Aug-2022 13:28:49
Local (UTC-5)  10-Aug-2022 08:28:49
 
METAR
KTKI 
14nm SE 
101253Z 06004KT 10SM CLR 23/21 A3009 RMK AO2 SLP186 T02330211
KGYI 
20nm N 
101150Z 08006KT 10SM SKC 23/21 A3010
KADS 
25nm S 
101247Z 11006KT 13SM SCT090 27/21 A3009
KDTO 
26nm SW 
101253Z 06003KT 10SM SCT090 25/22 A3009 RMK AO2 SLP179 T02500217
TAF
KDFW 
32nm SW 
101120Z 1012/1118 12004KT P6SM SCT120 FM101800 VRB06KT P6SM VCTS BKN080CB FM102200 18004KT P6SM BKN160
KDAL 
32nm S 
101120Z 1012/1112 12004KT P6SM SCT120 FM101800 VRB06KT P6SM VCTS BKN080CB FM102200 18004KT P6SM BKN160
KAFW 
38nm SW 
101120Z 1012/1112 12004KT P6SM SCT120 FM101800 VRB06KT P6SM VCTS BKN080CB FM102200 18004KT P6SM BKN160
NOTAMs
Click for the latest NOTAMs
NOTAMs are issued by the DoD/FAA and will open in a separate window not controlled by AirNav.

 

 
 

Would you like to see your business listed on this page?

 If your business provides an interesting product or service to pilots, flight crews, aircraft, or users of the Bishop's Landing Airport, you should consider listing it here.  To start the listing process, click on the button below
 
Add a business
 

Other Pages about Bishop's Landing Airport

Update a link
 
Copyright © AirNav, LLC. All rights reserved. Privacy Policy  Contact